Terminal Aerodrome Forecast
Issued by NWS

Home | Current Version | Previous Version | Text Only | Print | Product List | Glossary On
Versions: 1 2 3 4 5 6 7 8 9 10 11 12 13 14 15 16 17 18 19 20 21 22 23 24 25 26 27
000
FTUS43 KMQT 282206 AAB
TAFIWD
TAF AMD
KIWD 282206Z 2822/2918 04005KT P6SM -SHRA VCTS BKN035CB
      TEMPO 2822/2823 5SM -SHRA BKN015
     FM282300 VRB03KT P6SM VCSH BKN015
     FM290400 00000KT 3SM BR OVC005
     FM291600 25006KT P6SM VCSH OVC008=

USA.gov is the U.S. government's official web portal to all federal, state and local government web resources and services.